sensor_id;sensor_type;location;lat;lon;timestamp;P1;durP1;ratioP1;P2;durP2;ratioP2
62362;SDS011;48396;48.426;1.500;2022-11-15T00:01:49;11.20;;;3.05;;
62362;SDS011;48396;48.426;1.500;2022-11-15T00:04:14;9.00;;;2.60;;
62362;SDS011;48396;48.426;1.500;2022-11-15T00:06:41;8.75;;;2.70;;
62362;SDS011;48396;48.426;1.500;2022-11-15T00:09:06;11.00;;;2.53;;
62362;SDS011;48396;48.426;1.500;2022-11-15T00:11:32;16.10;;;3.03;;
62362;SDS011;48396;48.426;1.500;2022-11-15T00:13:58;11.20;;;2.65;;
62362;SDS011;48396;48.426;1.500;2022-11-15T00:16:27;14.68;;;3.17;;
62362;SDS011;48396;48.426;1.500;2022-11-15T00:18:53;11.82;;;3.13;;
62362;SDS011;48396;48.426;1.500;2022-11-15T00:21:19;10.07;;;2.65;;
62362;SDS011;48396;48.426;1.500;2022-11-15T00:23:44;10.45;;;2.90;;
62362;SDS011;48396;48.426;1.500;2022-11-15T00:26:11;9.77;;;2.75;;
62362;SDS011;48396;48.426;1.500;2022-11-15T00:28:38;11.88;;;2.60;;
62362;SDS011;48396;48.426;1.500;2022-11-15T00:31:06;9.25;;;2.47;;
62362;SDS011;48396;48.426;1.500;2022-11-15T00:33:33;6.43;;;2.40;;
62362;SDS011;48396;48.426;1.500;2022-11-15T00:36:03;8.65;;;2.65;;
62362;SDS011;48396;48.426;1.500;2022-11-15T00:38:37;10.30;;;2.42;;
62362;SDS011;48396;48.426;1.500;2022-11-15T00:41:04;11.23;;;2.67;;
62362;SDS011;48396;48.426;1.500;2022-11-15T00:43:32;10.60;;;2.38;;
62362;SDS011;48396;48.426;1.500;2022-11-15T00:45:59;11.52;;;2.65;;
62362;SDS011;48396;48.426;1.500;2022-11-15T00:48:25;10.73;;;2.65;;
62362;SDS011;48396;48.426;1.500;2022-11-15T00:50:50;12.85;;;2.92;;
62362;SDS011;48396;48.426;1.500;2022-11-15T00:53:16;7.88;;;2.60;;
62362;SDS011;48396;48.426;1.500;2022-11-15T00:55:42;8.38;;;2.22;;
62362;SDS011;48396;48.426;1.500;2022-11-15T00:58:08;9.80;;;2.85;;
62362;SDS011;48396;48.426;1.500;2022-11-15T01:00:34;10.82;;;3.13;;
62362;SDS011;48396;48.426;1.500;2022-11-15T01:03:00;9.80;;;3.00;;
62362;SDS011;48396;48.426;1.500;2022-11-15T01:05:27;6.50;;;2.63;;
62362;SDS011;48396;48.426;1.500;2022-11-15T01:07:53;11.13;;;2.78;;
62362;SDS011;48396;48.426;1.500;2022-11-15T01:10:20;13.13;;;2.80;;
62362;SDS011;48396;48.426;1.500;2022-11-15T01:12:46;13.07;;;2.90;;
62362;SDS011;48396;48.426;1.500;2022-11-15T01:15:12;19.58;;;3.33;;
62362;SDS011;48396;48.426;1.500;2022-11-15T01:17:37;11.13;;;3.05;;
62362;SDS011;48396;48.426;1.500;2022-11-15T01:20:03;10.60;;;3.40;;
62362;SDS011;48396;48.426;1.500;2022-11-15T01:22:29;11.57;;;3.03;;
62362;SDS011;48396;48.426;1.500;2022-11-15T01:24:55;12.60;;;2.90;;
62362;SDS011;48396;48.426;1.500;2022-11-15T01:27:21;10.32;;;2.78;;
62362;SDS011;48396;48.426;1.500;2022-11-15T01:29:47;12.85;;;2.90;;
62362;SDS011;48396;48.426;1.500;2022-11-15T01:32:13;12.57;;;2.90;;
62362;SDS011;48396;48.426;1.500;2022-11-15T01:34:39;12.07;;;3.00;;
62362;SDS011;48396;48.426;1.500;2022-11-15T01:37:04;10.00;;;2.63;;
62362;SDS011;48396;48.426;1.500;2022-11-15T01:39:30;17.85;;;2.80;;
62362;SDS011;48396;48.426;1.500;2022-11-15T01:41:56;15.10;;;3.42;;
62362;SDS011;48396;48.426;1.500;2022-11-15T01:47:18;11.60;;;2.70;;
62362;SDS011;48396;48.426;1.500;2022-11-15T01:49:51;9.68;;;3.20;;
62362;SDS011;48396;48.426;1.500;2022-11-15T01:52:30;11.80;;;2.97;;
62362;SDS011;48396;48.426;1.500;2022-11-15T01:57:26;16.13;;;3.05;;
62362;SDS011;48396;48.426;1.500;2022-11-15T01:59:53;12.50;;;3.13;;
62362;SDS011;48396;48.426;1.500;2022-11-15T02:02:19;12.50;;;3.42;;
62362;SDS011;48396;48.426;1.500;2022-11-15T02:04:46;12.50;;;2.88;;
62362;SDS011;48396;48.426;1.500;2022-11-15T02:07:15;8.93;;;2.63;;
62362;SDS011;48396;48.426;1.500;2022-11-15T02:09:43;10.60;;;3.05;;
62362;SDS011;48396;48.426;1.500;2022-11-15T02:12:09;9.82;;;2.72;;
62362;SDS011;48396;48.426;1.500;2022-11-15T02:14:38;13.30;;;2.85;;
62362;SDS011;48396;48.426;1.500;2022-11-15T02:19:49;11.00;;;2.88;;
62362;SDS011;48396;48.426;1.500;2022-11-15T02:23:04;10.15;;;2.40;;
62362;SDS011;48396;48.426;1.500;2022-11-15T02:33:55;11.13;;;2.80;;
62362;SDS011;48396;48.426;1.500;2022-11-15T02:36:36;10.23;;;2.80;;
62362;SDS011;48396;48.426;1.500;2022-11-15T02:40:27;11.55;;;2.80;;
62362;SDS011;48396;48.426;1.500;2022-11-15T02:42:28;12.00;;;2.80;;
62362;SDS011;48396;48.426;1.500;2022-11-15T02:45:30;5.82;;;2.13;;
62362;SDS011;48396;48.426;1.500;2022-11-15T02:48:02;12.20;;;2.92;;
62362;SDS011;48396;48.426;1.500;2022-11-15T02:50:31;9.15;;;2.63;;
62362;SDS011;48396;48.426;1.500;2022-11-15T02:52:58;9.07;;;2.90;;
62362;SDS011;48396;48.426;1.500;2022-11-15T02:55:29;8.15;;;2.50;;
62362;SDS011;48396;48.426;1.500;2022-11-15T03:00:41;12.52;;;2.83;;
62362;SDS011;48396;48.426;1.500;2022-11-15T03:03:34;12.55;;;2.88;;
62362;SDS011;48396;48.426;1.500;2022-11-15T03:06:27;13.65;;;2.95;;
62362;SDS011;48396;48.426;1.500;2022-11-15T03:11:44;9.52;;;3.00;;
62362;SDS011;48396;48.426;1.500;2022-11-15T03:14:22;10.95;;;2.80;;
62362;SDS011;48396;48.426;1.500;2022-11-15T03:19:38;9.48;;;2.53;;
62362;SDS011;48396;48.426;1.500;2022-11-15T03:22:12;10.68;;;2.88;;
62362;SDS011;48396;48.426;1.500;2022-11-15T03:24:42;12.57;;;2.95;;
62362;SDS011;48396;48.426;1.500;2022-11-15T03:27:11;6.93;;;2.33;;
62362;SDS011;48396;48.426;1.500;2022-11-15T03:29:43;10.27;;;2.58;;
62362;SDS011;48396;48.426;1.500;2022-11-15T03:32:13;7.05;;;2.30;;
62362;SDS011;48396;48.426;1.500;2022-11-15T03:34:44;10.77;;;2.67;;
62362;SDS011;48396;48.426;1.500;2022-11-15T03:37:16;10.63;;;2.88;;
62362;SDS011;48396;48.426;1.500;2022-11-15T03:39:45;11.60;;;2.80;;
62362;SDS011;48396;48.426;1.500;2022-11-15T03:47:38;11.85;;;2.88;;
62362;SDS011;48396;48.426;1.500;2022-11-15T03:50:17;10.80;;;2.40;;
62362;SDS011;48396;48.426;1.500;2022-11-15T03:52:45;10.20;;;2.55;;
62362;SDS011;48396;48.426;1.500;2022-11-15T03:55:14;7.65;;;2.53;;
62362;SDS011;48396;48.426;1.500;2022-11-15T03:57:42;7.50;;;2.50;;
62362;SDS011;48396;48.426;1.500;2022-11-15T04:00:08;11.15;;;2.35;;
62362;SDS011;48396;48.426;1.500;2022-11-15T04:02:34;12.48;;;2.30;;
62362;SDS011;48396;48.426;1.500;2022-11-15T04:05:00;9.25;;;2.85;;
62362;SDS011;48396;48.426;1.500;2022-11-15T04:07:26;15.35;;;2.78;;
62362;SDS011;48396;48.426;1.500;2022-11-15T04:09:52;11.18;;;2.67;;
62362;SDS011;48396;48.426;1.500;2022-11-15T04:12:33;7.90;;;2.63;;
62362;SDS011;48396;48.426;1.500;2022-11-15T04:15:05;9.07;;;2.38;;
62362;SDS011;48396;48.426;1.500;2022-11-15T04:17:36;10.35;;;2.83;;
62362;SDS011;48396;48.426;1.500;2022-11-15T04:20:11;9.63;;;2.33;;
62362;SDS011;48396;48.426;1.500;2022-11-15T04:23:01;8.07;;;2.42;;
62362;SDS011;48396;48.426;1.500;2022-11-15T04:25:49;4.10;;;2.15;;
62362;SDS011;48396;48.426;1.500;2022-11-15T04:28:16;9.80;;;2.20;;
62362;SDS011;48396;48.426;1.500;2022-11-15T04:30:42;7.82;;;2.25;;
62362;SDS011;48396;48.426;1.500;2022-11-15T04:33:08;16.45;;;2.92;;
62362;SDS011;48396;48.426;1.500;2022-11-15T04:35:34;7.60;;;2.05;;
62362;SDS011;48396;48.426;1.500;2022-11-15T04:38:00;8.32;;;2.40;;
62362;SDS011;48396;48.426;1.500;2022-11-15T04:40:27;10.48;;;2.72;;
62362;SDS011;48396;48.426;1.500;2022-11-15T04:42:52;6.78;;;2.10;;
62362;SDS011;48396;48.426;1.500;2022-11-15T04:45:18;8.95;;;2.28;;
62362;SDS011;48396;48.426;1.500;2022-11-15T04:47:44;8.75;;;2.50;;
62362;SDS011;48396;48.426;1.500;2022-11-15T04:50:11;10.10;;;2.50;;
62362;SDS011;48396;48.426;1.500;2022-11-15T04:52:49;8.60;;;2.15;;
62362;SDS011;48396;48.426;1.500;2022-11-15T04:55:17;10.30;;;2.25;;
62362;SDS011;48396;48.426;1.500;2022-11-15T04:57:43;10.65;;;2.25;;
62362;SDS011;48396;48.426;1.500;2022-11-15T05:00:10;6.75;;;2.13;;
62362;SDS011;48396;48.426;1.500;2022-11-15T05:02:38;10.70;;;3.00;;
62362;SDS011;48396;48.426;1.500;2022-11-15T05:05:23;8.48;;;2.50;;
62362;SDS011;48396;48.426;1.500;2022-11-15T05:07:49;8.63;;;2.42;;
62362;SDS011;48396;48.426;1.500;2022-11-15T05:10:15;10.75;;;2.90;;
62362;SDS011;48396;48.426;1.500;2022-11-15T05:12:41;8.18;;;2.60;;
62362;SDS011;48396;48.426;1.500;2022-11-15T05:15:07;9.05;;;2.80;;
62362;SDS011;48396;48.426;1.500;2022-11-15T05:17:33;14.55;;;3.08;;
62362;SDS011;48396;48.426;1.500;2022-11-15T05:20:00;8.18;;;2.70;;
62362;SDS011;48396;48.426;1.500;2022-11-15T05:22:26;7.40;;;2.40;;
62362;SDS011;48396;48.426;1.500;2022-11-15T05:24:52;11.38;;;2.78;;
62362;SDS011;48396;48.426;1.500;2022-11-15T05:27:18;6.95;;;2.60;;
62362;SDS011;48396;48.426;1.500;2022-11-15T05:29:44;11.63;;;3.28;;
62362;SDS011;48396;48.426;1.500;2022-11-15T05:32:09;8.82;;;2.53;;
62362;SDS011;48396;48.426;1.500;2022-11-15T05:34:38;13.57;;;2.60;;
62362;SDS011;48396;48.426;1.500;2022-11-15T05:37:04;9.27;;;2.63;;
62362;SDS011;48396;48.426;1.500;2022-11-15T05:39:30;14.32;;;2.83;;
62362;SDS011;48396;48.426;1.500;2022-11-15T05:41:57;13.63;;;2.92;;
62362;SDS011;48396;48.426;1.500;2022-11-15T05:44:36;9.02;;;2.40;;
62362;SDS011;48396;48.426;1.500;2022-11-15T05:47:03;10.07;;;2.67;;
62362;SDS011;48396;48.426;1.500;2022-11-15T05:49:31;9.90;;;2.90;;
62362;SDS011;48396;48.426;1.500;2022-11-15T05:52:00;11.75;;;3.10;;
62362;SDS011;48396;48.426;1.500;2022-11-15T05:54:28;11.32;;;4.22;;
62362;SDS011;48396;48.426;1.500;2022-11-15T05:56:55;16.70;;;4.45;;
62362;SDS011;48396;48.426;1.500;2022-11-15T05:59:21;13.02;;;4.30;;
62362;SDS011;48396;48.426;1.500;2022-11-15T06:01:47;13.65;;;3.75;;
62362;SDS011;48396;48.426;1.500;2022-11-15T06:04:12;14.88;;;3.13;;
62362;SDS011;48396;48.426;1.500;2022-11-15T06:06:38;12.23;;;3.10;;
62362;SDS011;48396;48.426;1.500;2022-11-15T06:09:04;12.60;;;2.92;;
62362;SDS011;48396;48.426;1.500;2022-11-15T06:11:29;11.77;;;3.40;;
62362;SDS011;48396;48.426;1.500;2022-11-15T06:13:55;11.63;;;3.22;;
62362;SDS011;48396;48.426;1.500;2022-11-15T06:16:21;10.73;;;2.85;;
62362;SDS011;48396;48.426;1.500;2022-11-15T06:18:47;7.63;;;2.50;;
62362;SDS011;48396;48.426;1.500;2022-11-15T06:21:13;11.70;;;2.70;;
62362;SDS011;48396;48.426;1.500;2022-11-15T06:23:38;10.30;;;3.00;;
62362;SDS011;48396;48.426;1.500;2022-11-15T06:26:04;9.35;;;2.70;;
62362;SDS011;48396;48.426;1.500;2022-11-15T06:28:30;11.45;;;3.58;;
62362;SDS011;48396;48.426;1.500;2022-11-15T06:31:07;8.10;;;3.00;;
62362;SDS011;48396;48.426;1.500;2022-11-15T06:33:35;10.93;;;4.30;;
62362;SDS011;48396;48.426;1.500;2022-11-15T06:36:03;12.98;;;3.30;;
62362;SDS011;48396;48.426;1.500;2022-11-15T06:38:30;7.15;;;3.42;;
62362;SDS011;48396;48.426;1.500;2022-11-15T06:41:01;14.43;;;3.75;;
62362;SDS011;48396;48.426;1.500;2022-11-15T06:43:31;11.85;;;3.55;;
62362;SDS011;48396;48.426;1.500;2022-11-15T06:46:01;12.73;;;3.63;;
62362;SDS011;48396;48.426;1.500;2022-11-15T06:48:28;10.48;;;4.03;;
62362;SDS011;48396;48.426;1.500;2022-11-15T06:50:55;9.20;;;3.47;;
62362;SDS011;48396;48.426;1.500;2022-11-15T06:53:23;10.82;;;3.75;;
62362;SDS011;48396;48.426;1.500;2022-11-15T06:55:49;12.38;;;3.95;;
62362;SDS011;48396;48.426;1.500;2022-11-15T06:58:15;12.13;;;3.70;;
62362;SDS011;48396;48.426;1.500;2022-11-15T07:00:41;10.00;;;3.72;;
62362;SDS011;48396;48.426;1.500;2022-11-15T07:03:08;7.93;;;3.35;;
62362;SDS011;48396;48.426;1.500;2022-11-15T07:05:34;13.88;;;3.65;;
62362;SDS011;48396;48.426;1.500;2022-11-15T07:07:59;9.18;;;3.17;;
62362;SDS011;48396;48.426;1.500;2022-11-15T07:10:26;12.68;;;3.67;;
62362;SDS011;48396;48.426;1.500;2022-11-15T07:12:52;8.00;;;3.58;;
62362;SDS011;48396;48.426;1.500;2022-11-15T07:15:19;11.82;;;3.63;;
62362;SDS011;48396;48.426;1.500;2022-11-15T07:17:47;8.38;;;3.25;;
62362;SDS011;48396;48.426;1.500;2022-11-15T07:20:13;16.90;;;3.75;;
62362;SDS011;48396;48.426;1.500;2022-11-15T07:22:40;11.65;;;3.90;;
62362;SDS011;48396;48.426;1.500;2022-11-15T07:25:06;13.30;;;4.10;;
62362;SDS011;48396;48.426;1.500;2022-11-15T07:27:32;13.90;;;3.97;;
62362;SDS011;48396;48.426;1.500;2022-11-15T07:29:58;9.07;;;3.58;;
62362;SDS011;48396;48.426;1.500;2022-11-15T07:32:24;15.52;;;4.25;;
62362;SDS011;48396;48.426;1.500;2022-11-15T07:34:50;15.48;;;3.80;;
62362;SDS011;48396;48.426;1.500;2022-11-15T07:37:16;16.40;;;4.40;;
62362;SDS011;48396;48.426;1.500;2022-11-15T07:39:42;9.90;;;3.08;;
62362;SDS011;48396;48.426;1.500;2022-11-15T07:42:09;12.40;;;3.08;;
62362;SDS011;48396;48.426;1.500;2022-11-15T07:44:54;10.00;;;3.70;;
62362;SDS011;48396;48.426;1.500;2022-11-15T07:47:20;13.70;;;4.13;;
62362;SDS011;48396;48.426;1.500;2022-11-15T07:49:46;13.00;;;4.05;;
62362;SDS011;48396;48.426;1.500;2022-11-15T07:52:12;11.60;;;3.80;;
62362;SDS011;48396;48.426;1.500;2022-11-15T07:54:38;10.57;;;3.20;;
62362;SDS011;48396;48.426;1.500;2022-11-15T07:57:04;10.63;;;3.58;;
62362;SDS011;48396;48.426;1.500;2022-11-15T07:59:32;12.93;;;3.42;;
62362;SDS011;48396;48.426;1.500;2022-11-15T08:01:58;11.00;;;3.80;;
62362;SDS011;48396;48.426;1.500;2022-11-15T08:04:23;14.55;;;3.15;;
62362;SDS011;48396;48.426;1.500;2022-11-15T08:06:49;10.52;;;3.35;;
62362;SDS011;48396;48.426;1.500;2022-11-15T08:09:15;10.80;;;3.08;;
62362;SDS011;48396;48.426;1.500;2022-11-15T08:11:41;10.63;;;3.30;;
62362;SDS011;48396;48.426;1.500;2022-11-15T08:14:06;8.02;;;3.22;;
62362;SDS011;48396;48.426;1.500;2022-11-15T08:16:32;9.13;;;3.13;;
62362;SDS011;48396;48.426;1.500;2022-11-15T08:18:58;10.90;;;3.70;;
62362;SDS011;48396;48.426;1.500;2022-11-15T08:21:24;8.55;;;3.42;;
62362;SDS011;48396;48.426;1.500;2022-11-15T08:23:49;9.05;;;3.50;;
62362;SDS011;48396;48.426;1.500;2022-11-15T08:26:15;9.27;;;3.50;;
62362;SDS011;48396;48.426;1.500;2022-11-15T08:28:41;9.25;;;3.40;;
62362;SDS011;48396;48.426;1.500;2022-11-15T08:31:12;9.38;;;3.30;;
62362;SDS011;48396;48.426;1.500;2022-11-15T08:54:57;6.93;;;2.78;;
62362;SDS011;48396;48.426;1.500;2022-11-15T08:57:23;5.80;;;2.17;;
62362;SDS011;48396;48.426;1.500;2022-11-15T08:59:49;10.63;;;2.58;;
62362;SDS011;48396;48.426;1.500;2022-11-15T09:02:15;7.50;;;2.60;;
62362;SDS011;48396;48.426;1.500;2022-11-15T09:04:41;12.38;;;3.17;;
62362;SDS011;48396;48.426;1.500;2022-11-15T09:07:11;8.27;;;2.70;;
62362;SDS011;48396;48.426;1.500;2022-11-15T09:09:37;7.88;;;2.65;;
62362;SDS011;48396;48.426;1.500;2022-11-15T09:12:04;7.57;;;2.67;;
62362;SDS011;48396;48.426;1.500;2022-11-15T09:14:30;10.18;;;3.55;;
62362;SDS011;48396;48.426;1.500;2022-11-15T09:16:56;7.78;;;3.30;;
62362;SDS011;48396;48.426;1.500;2022-11-15T09:19:23;10.13;;;3.92;;
62362;SDS011;48396;48.426;1.500;2022-11-15T09:21:49;10.10;;;3.10;;
62362;SDS011;48396;48.426;1.500;2022-11-15T09:24:14;7.57;;;2.55;;
62362;SDS011;48396;48.426;1.500;2022-11-15T09:26:40;6.22;;;2.50;;
62362;SDS011;48396;48.426;1.500;2022-11-15T09:29:06;12.38;;;3.70;;
62362;SDS011;48396;48.426;1.500;2022-11-15T09:31:32;9.38;;;3.67;;
62362;SDS011;48396;48.426;1.500;2022-11-15T09:33:58;11.88;;;3.65;;
62362;SDS011;48396;48.426;1.500;2022-11-15T09:36:23;11.13;;;3.95;;
62362;SDS011;48396;48.426;1.500;2022-11-15T09:38:49;12.75;;;3.85;;
62362;SDS011;48396;48.426;1.500;2022-11-15T09:49:26;13.73;;;6.55;;
62362;SDS011;48396;48.426;1.500;2022-11-15T09:51:54;16.33;;;5.43;;
62362;SDS011;48396;48.426;1.500;2022-11-15T09:54:28;12.20;;;3.50;;
62362;SDS011;48396;48.426;1.500;2022-11-15T10:05:23;10.98;;;3.67;;
62362;SDS011;48396;48.426;1.500;2022-11-15T10:07:54;12.75;;;3.25;;
62362;SDS011;48396;48.426;1.500;2022-11-15T10:10:38;11.25;;;3.35;;
62362;SDS011;48396;48.426;1.500;2022-11-15T10:13:18;12.18;;;3.20;;
62362;SDS011;48396;48.426;1.500;2022-11-15T10:15:48;10.77;;;3.67;;
62362;SDS011;48396;48.426;1.500;2022-11-15T10:18:19;8.55;;;2.85;;
62362;SDS011;48396;48.426;1.500;2022-11-15T10:20:58;6.82;;;2.53;;
62362;SDS011;48396;48.426;1.500;2022-11-15T10:23:27;7.97;;;2.63;;
62362;SDS011;48396;48.426;1.500;2022-11-15T10:25:55;8.57;;;2.70;;
62362;SDS011;48396;48.426;1.500;2022-11-15T10:28:30;6.65;;;2.30;;
62362;SDS011;48396;48.426;1.500;2022-11-15T10:30:59;9.05;;;3.10;;
62362;SDS011;48396;48.426;1.500;2022-11-15T10:33:32;7.50;;;2.90;;
62362;SDS011;48396;48.426;1.500;2022-11-15T10:41:20;9.70;;;3.10;;
62362;SDS011;48396;48.426;1.500;2022-11-15T10:46:31;7.00;;;2.90;;
62362;SDS011;48396;48.426;1.500;2022-11-15T10:49:11;11.07;;;3.00;;
62362;SDS011;48396;48.426;1.500;2022-11-15T10:54:43;7.82;;;2.97;;
62362;SDS011;48396;48.426;1.500;2022-11-15T10:57:20;9.57;;;3.30;;
62362;SDS011;48396;48.426;1.500;2022-11-15T10:59:53;11.32;;;3.38;;
62362;SDS011;48396;48.426;1.500;2022-11-15T11:02:45;11.40;;;3.40;;
62362;SDS011;48396;48.426;1.500;2022-11-15T11:05:39;11.15;;;3.30;;
62362;SDS011;48396;48.426;1.500;2022-11-15T11:08:19;9.75;;;3.28;;
62362;SDS011;48396;48.426;1.500;2022-11-15T11:10:55;11.52;;;3.47;;
62362;SDS011;48396;48.426;1.500;2022-11-15T11:13:23;7.82;;;3.28;;
62362;SDS011;48396;48.426;1.500;2022-11-15T11:16:41;7.28;;;3.15;;
62362;SDS011;48396;48.426;1.500;2022-11-15T11:24:44;8.50;;;3.30;;
62362;SDS011;48396;48.426;1.500;2022-11-15T11:27:36;9.32;;;3.20;;
62362;SDS011;48396;48.426;1.500;2022-11-15T11:30:14;7.20;;;3.50;;
62362;SDS011;48396;48.426;1.500;2022-11-15T11:32:50;9.35;;;3.22;;
62362;SDS011;48396;48.426;1.500;2022-11-15T11:41:20;9.30;;;3.92;;
62362;SDS011;48396;48.426;1.500;2022-11-15T11:47:03;13.30;;;3.20;;
62362;SDS011;48396;48.426;1.500;2022-11-15T11:49:54;10.93;;;3.55;;
62362;SDS011;48396;48.426;1.500;2022-11-15T11:52:27;8.32;;;3.03;;
62362;SDS011;48396;48.426;1.500;2022-11-15T12:00:39;9.43;;;3.90;;
62362;SDS011;48396;48.426;1.500;2022-11-15T12:03:14;11.02;;;3.60;;
62362;SDS011;48396;48.426;1.500;2022-11-15T12:06:00;9.68;;;3.60;;
62362;SDS011;48396;48.426;1.500;2022-11-15T12:08:36;6.43;;;3.20;;
62362;SDS011;48396;48.426;1.500;2022-11-15T12:13:58;7.03;;;3.67;;
62362;SDS011;48396;48.426;1.500;2022-11-15T12:16:27;9.50;;;3.60;;
62362;SDS011;48396;48.426;1.500;2022-11-15T12:18:55;7.85;;;3.60;;
62362;SDS011;48396;48.426;1.500;2022-11-15T12:24:00;8.05;;;3.53;;
62362;SDS011;48396;48.426;1.500;2022-11-15T12:26:35;7.93;;;3.47;;
62362;SDS011;48396;48.426;1.500;2022-11-15T12:29:51;6.32;;;2.80;;
62362;SDS011;48396;48.426;1.500;2022-11-15T12:31:59;8.60;;;3.70;;
62362;SDS011;48396;48.426;1.500;2022-11-15T12:34:30;9.20;;;3.50;;
62362;SDS011;48396;48.426;1.500;2022-11-15T12:40:20;10.70;;;3.50;;
62362;SDS011;48396;48.426;1.500;2022-11-15T12:43:02;10.32;;;3.40;;
62362;SDS011;48396;48.426;1.500;2022-11-15T12:45:38;8.25;;;3.53;;
62362;SDS011;48396;48.426;1.500;2022-11-15T12:50:53;6.22;;;3.13;;
62362;SDS011;48396;48.426;1.500;2022-11-15T13:11:59;8.48;;;3.75;;
62362;SDS011;48396;48.426;1.500;2022-11-15T13:14:50;11.35;;;3.92;;
62362;SDS011;48396;48.426;1.500;2022-11-15T13:17:25;6.18;;;3.20;;
62362;SDS011;48396;48.426;1.500;2022-11-15T13:20:00;6.72;;;3.88;;
62362;SDS011;48396;48.426;1.500;2022-11-15T13:36:50;12.00;;;4.35;;
62362;SDS011;48396;48.426;1.500;2022-11-15T13:41:57;7.03;;;3.40;;
62362;SDS011;48396;48.426;1.500;2022-11-15T13:44:25;7.97;;;4.40;;
62362;SDS011;48396;48.426;1.500;2022-11-15T13:47:01;8.98;;;3.95;;
62362;SDS011;48396;48.426;1.500;2022-11-15T13:49:31;9.60;;;4.50;;
62362;SDS011;48396;48.426;1.500;2022-11-15T13:51:58;5.97;;;3.78;;
62362;SDS011;48396;48.426;1.500;2022-11-15T13:57:14;11.10;;;4.43;;
62362;SDS011;48396;48.426;1.500;2022-11-15T13:59:52;9.75;;;4.05;;
62362;SDS011;48396;48.426;1.500;2022-11-15T14:02:31;9.13;;;4.30;;
62362;SDS011;48396;48.426;1.500;2022-11-15T14:05:01;9.65;;;4.45;;
62362;SDS011;48396;48.426;1.500;2022-11-15T14:07:27;8.50;;;4.20;;
62362;SDS011;48396;48.426;1.500;2022-11-15T14:09:54;11.45;;;4.30;;
62362;SDS011;48396;48.426;1.500;2022-11-15T14:12:30;13.15;;;4.45;;
62362;SDS011;48396;48.426;1.500;2022-11-15T14:14:58;9.57;;;4.65;;
62362;SDS011;48396;48.426;1.500;2022-11-15T14:19:56;11.73;;;4.65;;
62362;SDS011;48396;48.426;1.500;2022-11-15T14:22:23;13.13;;;4.90;;
62362;SDS011;48396;48.426;1.500;2022-11-15T14:27:44;12.10;;;4.40;;
62362;SDS011;48396;48.426;1.500;2022-11-15T14:30:29;11.45;;;4.53;;
62362;SDS011;48396;48.426;1.500;2022-11-15T14:32:54;12.27;;;4.90;;
62362;SDS011;48396;48.426;1.500;2022-11-15T14:35:21;14.43;;;5.00;;
62362;SDS011;48396;48.426;1.500;2022-11-15T14:37:48;13.73;;;4.38;;
62362;SDS011;48396;48.426;1.500;2022-11-15T14:40:15;16.13;;;5.00;;
62362;SDS011;48396;48.426;1.500;2022-11-15T14:42:46;10.57;;;4.60;;
62362;SDS011;48396;48.426;1.500;2022-11-15T14:45:14;11.25;;;5.13;;
62362;SDS011;48396;48.426;1.500;2022-11-15T14:47:45;11.75;;;4.00;;
62362;SDS011;48396;48.426;1.500;2022-11-15T14:50:20;11.35;;;4.45;;
62362;SDS011;48396;48.426;1.500;2022-11-15T14:52:47;11.07;;;4.55;;
62362;SDS011;48396;48.426;1.500;2022-11-15T14:55:24;10.77;;;4.35;;
62362;SDS011;48396;48.426;1.500;2022-11-15T14:57:51;12.27;;;4.60;;
62362;SDS011;48396;48.426;1.500;2022-11-15T15:00:18;12.98;;;4.78;;
62362;SDS011;48396;48.426;1.500;2022-11-15T15:02:45;13.38;;;4.50;;
62362;SDS011;48396;48.426;1.500;2022-11-15T15:05:23;13.95;;;4.88;;
62362;SDS011;48396;48.426;1.500;2022-11-15T15:07:49;15.18;;;5.07;;
62362;SDS011;48396;48.426;1.500;2022-11-15T15:10:16;13.27;;;4.78;;
62362;SDS011;48396;48.426;1.500;2022-11-15T15:12:43;12.02;;;4.88;;
62362;SDS011;48396;48.426;1.500;2022-11-15T15:15:12;12.23;;;4.60;;
62362;SDS011;48396;48.426;1.500;2022-11-15T15:17:39;11.33;;;4.70;;
62362;SDS011;48396;48.426;1.500;2022-11-15T15:20:05;12.85;;;4.50;;
62362;SDS011;48396;48.426;1.500;2022-11-15T15:22:31;13.32;;;4.72;;
62362;SDS011;48396;48.426;1.500;2022-11-15T15:24:57;10.32;;;4.57;;
62362;SDS011;48396;48.426;1.500;2022-11-15T15:27:23;13.35;;;5.13;;
62362;SDS011;48396;48.426;1.500;2022-11-15T15:29:48;11.35;;;4.43;;
62362;SDS011;48396;48.426;1.500;2022-11-15T15:32:14;8.48;;;4.40;;
62362;SDS011;48396;48.426;1.500;2022-11-15T15:34:40;11.63;;;4.53;;
62362;SDS011;48396;48.426;1.500;2022-11-15T15:37:22;9.50;;;4.10;;
62362;SDS011;48396;48.426;1.500;2022-11-15T15:39:50;11.05;;;4.53;;
62362;SDS011;48396;48.426;1.500;2022-11-15T15:42:18;11.52;;;4.60;;
62362;SDS011;48396;48.426;1.500;2022-11-15T15:44:45;11.45;;;4.78;;
62362;SDS011;48396;48.426;1.500;2022-11-15T15:47:12;12.68;;;4.93;;
62362;SDS011;48396;48.426;1.500;2022-11-15T15:49:45;10.40;;;4.40;;
62362;SDS011;48396;48.426;1.500;2022-11-15T15:52:11;11.30;;;4.93;;
62362;SDS011;48396;48.426;1.500;2022-11-15T15:54:37;11.70;;;4.35;;
62362;SDS011;48396;48.426;1.500;2022-11-15T15:57:04;11.00;;;4.25;;
62362;SDS011;48396;48.426;1.500;2022-11-15T15:59:31;13.00;;;4.72;;
62362;SDS011;48396;48.426;1.500;2022-11-15T16:01:56;11.65;;;4.55;;
62362;SDS011;48396;48.426;1.500;2022-11-15T16:04:22;10.52;;;4.60;;
62362;SDS011;48396;48.426;1.500;2022-11-15T16:06:48;12.65;;;4.70;;
62362;SDS011;48396;48.426;1.500;2022-11-15T16:09:17;13.07;;;5.05;;
62362;SDS011;48396;48.426;1.500;2022-11-15T16:12:04;10.73;;;4.22;;
62362;SDS011;48396;48.426;1.500;2022-11-15T16:14:30;12.57;;;4.80;;
62362;SDS011;48396;48.426;1.500;2022-11-15T16:16:57;10.02;;;4.43;;
62362;SDS011;48396;48.426;1.500;2022-11-15T16:19:23;8.93;;;4.55;;
62362;SDS011;48396;48.426;1.500;2022-11-15T16:21:49;10.77;;;4.80;;
62362;SDS011;48396;48.426;1.500;2022-11-15T16:24:17;10.57;;;4.65;;
62362;SDS011;48396;48.426;1.500;2022-11-15T16:26:43;12.55;;;4.93;;
62362;SDS011;48396;48.426;1.500;2022-11-15T16:29:10;14.07;;;5.07;;
62362;SDS011;48396;48.426;1.500;2022-11-15T16:31:36;13.73;;;4.72;;
62362;SDS011;48396;48.426;1.500;2022-11-15T16:34:02;10.93;;;4.57;;
62362;SDS011;48396;48.426;1.500;2022-11-15T16:36:29;13.60;;;4.90;;
62362;SDS011;48396;48.426;1.500;2022-11-15T16:38:57;11.65;;;4.65;;
62362;SDS011;48396;48.426;1.500;2022-11-15T16:41:24;14.32;;;4.78;;
62362;SDS011;48396;48.426;1.500;2022-11-15T16:43:50;13.82;;;5.45;;
62362;SDS011;48396;48.426;1.500;2022-11-15T16:46:20;14.02;;;5.07;;
62362;SDS011;48396;48.426;1.500;2022-11-15T16:48:48;14.32;;;5.00;;
62362;SDS011;48396;48.426;1.500;2022-11-15T16:51:14;10.82;;;4.28;;
62362;SDS011;48396;48.426;1.500;2022-11-15T16:53:41;10.50;;;4.20;;
62362;SDS011;48396;48.426;1.500;2022-11-15T16:56:26;10.30;;;4.28;;
62362;SDS011;48396;48.426;1.500;2022-11-15T16:58:53;10.10;;;3.92;;
62362;SDS011;48396;48.426;1.500;2022-11-15T17:01:25;11.32;;;4.82;;
62362;SDS011;48396;48.426;1.500;2022-11-15T17:03:52;12.88;;;4.13;;
62362;SDS011;48396;48.426;1.500;2022-11-15T17:06:18;11.75;;;3.90;;
62362;SDS011;48396;48.426;1.500;2022-11-15T17:08:45;9.48;;;4.07;;
62362;SDS011;48396;48.426;1.500;2022-11-15T17:11:16;14.65;;;4.70;;
62362;SDS011;48396;48.426;1.500;2022-11-15T17:13:43;14.02;;;4.78;;
62362;SDS011;48396;48.426;1.500;2022-11-15T17:16:10;11.52;;;4.13;;
62362;SDS011;48396;48.426;1.500;2022-11-15T17:18:38;11.20;;;4.43;;
62362;SDS011;48396;48.426;1.500;2022-11-15T17:21:05;10.20;;;3.75;;
62362;SDS011;48396;48.426;1.500;2022-11-15T17:23:32;9.13;;;4.00;;
62362;SDS011;48396;48.426;1.500;2022-11-15T17:25:59;10.40;;;3.85;;
62362;SDS011;48396;48.426;1.500;2022-11-15T17:28:28;9.93;;;3.70;;